Kuching, Malaysia

6:00 AM MYT on November 01, 2014 (GMT +0800)
Kuching International | Change Station
CLOSE
Current Station
Airport
Location: Kuching,
Elevation: 89 ft
Nearby Weather Stations

Elev 89 ft 1.48 °N, 110.33 °E | Updated 30 minutes ago

Light Rain
Light Rain
77 °F
Feels Like 77 °F
N
4
Wind Variable Wind from ESE

Today
High -- | Low -- °F
--% Chance of Precip.
Yesterday
High -- | Low -- °F
Precip. -- in
6:20 AM 6:24 PM
First Quarter, 59% visible
Pressure 29.80 in
Visibility 3.7 miles
Clouds Few 1500 ft
Scattered Clouds 2000 ft
Mostly Cloudy 15000 ft
Dew Point 73 °F
Humidity 89%
Rainfall 0.00 in
Snow Depth Not available.
UV 0 out of 12
Pollen Not available.
Air Quality Not available.
Flu Activity Not available.
METAR WBGG 312130Z 11003KT 6000 -RA FEW015CB SCT020 BKN150 25/23 Q1009 TEMPO 4000 TSRA

More Conditions Fewer Conditions

Pressure 29.80 in
Visibility 3.7 miles
Clouds Few 1500 ft
Scattered Clouds 2000 ft
Mostly Cloudy 15000 ft
Dew Point 73 °F
Humidity 89%
Rainfall 0.00 in
Snow Depth Not available.
UV 0 out of 12
Pollen Not available.
Air Quality Not available.
Flu Activity Not available.
METAR WBGG 312130Z 11003KT 6000 -RA FEW015CB SCT020 BKN150 25/23 Q1009 TEMPO 4000 TSRA

More Conditions Fewer Conditions

10-Day Weather Forecast

Almanac

Astronomy

Nov. 01, 2014 Rise Set
Actual Time
Civil Twilight
Nautical Twilight
Astronomical Twilight
Moon
Length of Visible Light
Length of Day
Tomorrow will be .
, % of the Moon is Illuminated

Today's Extremes

Country Highs Country Lows

Community

WunderPhotos

Upload Photos

1,766,751 photos uploaded!

WunderBlogs® & News

Nearby

Air Quality

  Air Quality AQ Index Pollutant
Not available.

Snow Depth

Station Depth Elevation

Earthquake Activity

City Distance Mag. Time & Date
Minimum magnitude displayed is 2.5.

Coastal Water Temperatures

Place Temperature

Nearby Weather Stations